Constitution — WDD4734 — position and weather

sailwx.info

Track history (hours):
 
Tides and Currents Weather Stations Pressure Air Temp Water Temp Dewpoint Dewpoint Depression Visibility Wind Speed Wind Dir Waves Ship Positions

Constitution

Owner: ConstitutionCharters, San Diego, CA. More information available from US FCC via Universal Licensing System and Coast Guard Vessel Documentation Center.

Last reported at 2017-Oct-14 04:32 UTC. Time now 2017-Nov-25 02:15 UTC.
Position N 32°37' W 117°13'.
Warning: this ship's position is 41 days out of date.

Length 26 m.

Type: Passenger vessel. MMSI: 338299000.

Date/timePositionNaut miles runAvg speedWind from/ knotsBaromVisibWave heightAir tempDewpointWater temp
2017-Oct-14 04:32N 32°37' W 117°13'0 9.7
2017-Oct-14 04:30N 32°37' W 117°13'4 9.0
2017-Oct-14 04:00N 32°42' W 117°14'0 0.1
2017-Oct-14 03:30N 32°42' W 117°14'0 0.0
2017-Oct-14 03:00N 32°42' W 117°14'2 3.6
2017-Oct-14 02:30N 32°43' W 117°14'  
2017-Oct-09 02:33N 32°43' W 117°14'0 0.0
2017-Oct-09 02:30N 32°43' W 117°14'0 0.0
2017-Oct-09 02:00N 32°43' W 117°14'4 6.9
2017-Oct-09 01:26N 32°39' W 117°14'3 7.4
2017-Oct-09 01:00N 32°38' W 117°17'5 9.4
2017-Oct-09 00:30N 32°39' W 117°23'5 9.9
2017-Oct-09 00:00N 32°40' W 117°28'49 1.4
2017-Oct-07 12:40N 32°43' W 118°27'2 9.4
2017-Oct-07 12:30N 32°43' W 118°25'4 9.0
2017-Oct-07 12:00N 32°43' W 118°20'4 8.9
2017-Oct-07 11:30N 32°42' W 118°14'4 8.8
2017-Oct-07 11:00N 32°42' W 118°09'5 9.1
2017-Oct-07 10:30N 32°42' W 118°04'5 9.3
2017-Oct-07 10:00N 32°41' W 117°58'5 9.4
2017-Oct-07 09:30N 32°41' W 117°53'5 9.4
2017-Oct-07 09:00N 32°40' W 117°47'5 9.5
2017-Oct-07 08:30N 32°40' W 117°42'5 9.5
2017-Oct-07 08:00N 32°39' W 117°36'5 9.4
2017-Oct-07 07:30N 32°39' W 117°30'5 9.3
2017-Oct-07 07:00N 32°39' W 117°25'10 7.7
2017-Oct-07 05:46N 32°39' W 117°14'2 8.4
2017-Oct-07 05:30N 32°42' W 117°14'0 0.0
2017-Oct-07 05:00N 32°42' W 117°14'1 1.3
2017-Oct-07 04:30N 32°42' W 117°14'1 2.2
2017-Oct-07 04:00N 32°43' W 117°14'0 0.0
2017-Oct-07 03:30N 32°43' W 117°14'0 0.0
2017-Oct-07 03:00N 32°43' W 117°14'0 0.0
2017-Oct-07 02:30N 32°43' W 117°14'0 0.0
2017-Oct-07 02:00N 32°43' W 117°14'0 0.0
2017-Oct-07 01:30N 32°43' W 117°14'0 0.0
2017-Oct-07 01:00N 32°43' W 117°14'0 0.0
2017-Oct-07 00:30N 32°43' W 117°14'0 0.0
2017-Oct-07 00:00N 32°43' W 117°14'0 0.0
2017-Oct-06 23:30N 32°43' W 117°14'0 0.0
2017-Oct-06 23:00N 32°43' W 117°14'0 0.0
2017-Oct-06 22:30N 32°43' W 117°14'0 0.0
2017-Oct-06 21:59N 32°43' W 117°14'0 0.0
2017-Oct-06 21:30N 32°43' W 117°14'0 0.0
2017-Oct-06 21:00N 32°43' W 117°14'0 0.0
2017-Oct-06 20:30N 32°43' W 117°14'0 0.0
2017-Oct-06 20:00N 32°43' W 117°14'0 0.0
2017-Oct-06 19:31N 32°43' W 117°14'0 0.0
2017-Oct-06 19:00N 32°43' W 117°14'0 0.0
2017-Oct-06 18:30N 32°43' W 117°14'0 0.0
2017-Oct-06 17:59N 32°43' W 117°14'0 0.0
2017-Oct-06 17:30N 32°43' W 117°14'0 0.0
2017-Oct-06 17:00N 32°43' W 117°14'0 0.0
2017-Oct-06 16:31N 32°43' W 117°14'0 0.0
2017-Oct-06 16:00N 32°43' W 117°14'0 0.0
2017-Oct-06 15:30N 32°43' W 117°14'0 0.0
2017-Oct-06 15:00N 32°43' W 117°14'0 0.2
2017-Oct-06 14:30N 32°43' W 117°14'0 0.2
2017-Oct-06 14:00N 32°43' W 117°14'0 0.0
2017-Oct-06 13:30N 32°43' W 117°14'0 0.0
2017-Oct-06 13:00N 32°43' W 117°14'0 0.0
2017-Oct-06 12:30N 32°43' W 117°14'1 0.8
2017-Oct-06 11:26N 32°43' W 117°13'0 0.0
2017-Oct-06 10:29N 32°43' W 117°13'0 0.3
2017-Oct-06 10:01N 32°43' W 117°13'4 7.8
2017-Oct-06 09:30N 32°39' W 117°14'3 6.4
2017-Oct-06 09:00N 32°38' W 117°17'4 8.9
2017-Oct-06 08:30N 32°39' W 117°22'4 8.9
2017-Oct-06 08:00N 32°39' W 117°28'4 8.5
2017-Oct-06 07:30N 32°40' W 117°33'4 8.5
2017-Oct-06 07:00N 32°40' W 117°38'4 8.4
2017-Oct-06 06:30N 32°41' W 117°43'4 8.5
2017-Oct-06 06:01N 32°41' W 117°48'4 8.6
2017-Oct-06 05:30N 32°42' W 117°53'4 8.7
2017-Oct-06 05:00N 32°42' W 117°58'4 8.7
2017-Oct-06 04:30N 32°43' W 118°03'4 8.6
2017-Oct-06 04:00N 32°43' W 118°08'4 8.5
2017-Oct-06 03:30N 32°44' W 118°13'4 8.7
2017-Oct-06 03:00N 32°45' W 118°18'5 9.2
2017-Oct-06 02:30N 32°45' W 118°24'8 0.4
2017-Oct-05 05:27N 32°42' W 118°32'4 8.6
2017-Oct-05 05:00N 32°41' W 118°36'5 9.0
2017-Oct-05 04:24N 32°38' W 118°42'4 9.2
2017-Oct-05 04:00N 32°36' W 118°46'5 9.2
2017-Oct-05 03:29N 32°34' W 118°51'4 9.1
2017-Oct-05 03:00N 32°32' W 118°55'5 8.9
2017-Oct-05 02:28N 32°30' W 119°00'4 8.9
2017-Oct-05 02:00N 32°28' W 119°04'14 1.1
2017-Oct-04 13:32N 32°41' W 119°08'0 7.2
2017-Oct-04 13:29N 32°42' W 119°08'1 1.7
2017-Oct-04 13:00N 32°42' W 119°08'0 0.0
2017-Oct-04 10:39N 32°42' W 119°08'  
Track history (hours):
 
Tides and Currents Weather Stations Pressure Air Temp Water Temp Dewpoint Dewpoint Depression Visibility Wind Speed Wind Dir Waves Ship Positions

Constitution

Owner: ConstitutionCharters, San Diego, CA. More information available from US FCC via Universal Licensing System and Coast Guard Vessel Documentation Center.

Last reported at 2017-Oct-14 04:32 UTC. Time now 2017-Nov-25 02:15 UTC.
Position N 32°37' W 117°13'.
Warning: this ship's position is 41 days out of date.

Length 26 m.

Type: Passenger vessel. MMSI: 338299000.

Date/timePositionNaut miles runAvg speedWind from/ knotsBaromVisibWave heightAir tempDewpointWater temp
2017-Oct-14 04:32N 32°37' W 117°13'0 9.7
2017-Oct-14 04:30N 32°37' W 117°13'4 9.0
2017-Oct-14 04:00N 32°42' W 117°14'0 0.1
2017-Oct-14 03:30N 32°42' W 117°14'0 0.0
2017-Oct-14 03:00N 32°42' W 117°14'2 3.6
2017-Oct-14 02:30N 32°43' W 117°14'  
2017-Oct-09 02:33N 32°43' W 117°14'0 0.0
2017-Oct-09 02:30N 32°43' W 117°14'0 0.0
2017-Oct-09 02:00N 32°43' W 117°14'4 6.9
2017-Oct-09 01:26N 32°39' W 117°14'3 7.4
2017-Oct-09 01:00N 32°38' W 117°17'5 9.4
2017-Oct-09 00:30N 32°39' W 117°23'5 9.9
2017-Oct-09 00:00N 32°40' W 117°28'49 1.4
2017-Oct-07 12:40N 32°43' W 118°27'2 9.4
2017-Oct-07 12:30N 32°43' W 118°25'4 9.0
2017-Oct-07 12:00N 32°43' W 118°20'4 8.9
2017-Oct-07 11:30N 32°42' W 118°14'4 8.8
2017-Oct-07 11:00N 32°42' W 118°09'5 9.1
2017-Oct-07 10:30N 32°42' W 118°04'5 9.3
2017-Oct-07 10:00N 32°41' W 117°58'5 9.4
2017-Oct-07 09:30N 32°41' W 117°53'5 9.4
2017-Oct-07 09:00N 32°40' W 117°47'5 9.5
2017-Oct-07 08:30N 32°40' W 117°42'5 9.5
2017-Oct-07 08:00N 32°39' W 117°36'5 9.4
2017-Oct-07 07:30N 32°39' W 117°30'5 9.3
2017-Oct-07 07:00N 32°39' W 117°25'10 7.7
2017-Oct-07 05:46N 32°39' W 117°14'2 8.4
2017-Oct-07 05:30N 32°42' W 117°14'0 0.0
2017-Oct-07 05:00N 32°42' W 117°14'1 1.3
2017-Oct-07 04:30N 32°42' W 117°14'1 2.2
2017-Oct-07 04:00N 32°43' W 117°14'0 0.0
2017-Oct-07 03:30N 32°43' W 117°14'0 0.0
2017-Oct-07 03:00N 32°43' W 117°14'0 0.0
2017-Oct-07 02:30N 32°43' W 117°14'0 0.0
2017-Oct-07 02:00N 32°43' W 117°14'0 0.0
2017-Oct-07 01:30N 32°43' W 117°14'0 0.0
2017-Oct-07 01:00N 32°43' W 117°14'0 0.0
2017-Oct-07 00:30N 32°43' W 117°14'0 0.0
2017-Oct-07 00:00N 32°43' W 117°14'0 0.0
2017-Oct-06 23:30N 32°43' W 117°14'0 0.0
2017-Oct-06 23:00N 32°43' W 117°14'0 0.0
2017-Oct-06 22:30N 32°43' W 117°14'0 0.0
2017-Oct-06 21:59N 32°43' W 117°14'0 0.0
2017-Oct-06 21:30N 32°43' W 117°14'0 0.0
2017-Oct-06 21:00N 32°43' W 117°14'0 0.0
2017-Oct-06 20:30N 32°43' W 117°14'0 0.0
2017-Oct-06 20:00N 32°43' W 117°14'0 0.0
2017-Oct-06 19:31N 32°43' W 117°14'0 0.0
2017-Oct-06 19:00N 32°43' W 117°14'0 0.0
2017-Oct-06 18:30N 32°43' W 117°14'0 0.0
2017-Oct-06 17:59N 32°43' W 117°14'0 0.0
2017-Oct-06 17:30N 32°43' W 117°14'0 0.0
2017-Oct-06 17:00N 32°43' W 117°14'0 0.0
2017-Oct-06 16:31N 32°43' W 117°14'0 0.0
2017-Oct-06 16:00N 32°43' W 117°14'0 0.0
2017-Oct-06 15:30N 32°43' W 117°14'0 0.0
2017-Oct-06 15:00N 32°43' W 117°14'0 0.2
2017-Oct-06 14:30N 32°43' W 117°14'0 0.2
2017-Oct-06 14:00N 32°43' W 117°14'0 0.0
2017-Oct-06 13:30N 32°43' W 117°14'0 0.0
2017-Oct-06 13:00N 32°43' W 117°14'0 0.0
2017-Oct-06 12:30N 32°43' W 117°14'1 0.8
2017-Oct-06 11:26N 32°43' W 117°13'0 0.0
2017-Oct-06 10:29N 32°43' W 117°13'0 0.3
2017-Oct-06 10:01N 32°43' W 117°13'4 7.8
2017-Oct-06 09:30N 32°39' W 117°14'3 6.4
2017-Oct-06 09:00N 32°38' W 117°17'4 8.9
2017-Oct-06 08:30N 32°39' W 117°22'4 8.9
2017-Oct-06 08:00N 32°39' W 117°28'4 8.5
2017-Oct-06 07:30N 32°40' W 117°33'4 8.5
2017-Oct-06 07:00N 32°40' W 117°38'4 8.4
2017-Oct-06 06:30N 32°41' W 117°43'4 8.5
2017-Oct-06 06:01N 32°41' W 117°48'4 8.6
2017-Oct-06 05:30N 32°42' W 117°53'4 8.7
2017-Oct-06 05:00N 32°42' W 117°58'4 8.7
2017-Oct-06 04:30N 32°43' W 118°03'4 8.6
2017-Oct-06 04:00N 32°43' W 118°08'4 8.5
2017-Oct-06 03:30N 32°44' W 118°13'4 8.7
2017-Oct-06 03:00N 32°45' W 118°18'5 9.2
2017-Oct-06 02:30N 32°45' W 118°24'8 0.4
2017-Oct-05 05:27N 32°42' W 118°32'4 8.6
2017-Oct-05 05:00N 32°41' W 118°36'5 9.0
2017-Oct-05 04:24N 32°38' W 118°42'4 9.2
2017-Oct-05 04:00N 32°36' W 118°46'5 9.2
2017-Oct-05 03:29N 32°34' W 118°51'4 9.1
2017-Oct-05 03:00N 32°32' W 118°55'5 8.9
2017-Oct-05 02:28N 32°30' W 119°00'4 8.9
2017-Oct-05 02:00N 32°28' W 119°04'14 1.1
2017-Oct-04 13:32N 32°41' W 119°08'0 7.2
2017-Oct-04 13:29N 32°42' W 119°08'1 1.7
2017-Oct-04 13:00N 32°42' W 119°08'0 0.0
2017-Oct-04 10:39N 32°42' W 119°08'  

Dump ship's entire track history